createdAt,value
2022-10-28T00:00:11.199Z,11.80
2022-10-28T00:02:40.908Z,11.70
2022-10-28T00:05:11.439Z,11.70
2022-10-28T00:07:40.834Z,11.70
2022-10-28T00:10:09.944Z,11.60
2022-10-28T00:12:38.816Z,11.70
2022-10-28T00:15:07.928Z,11.70
2022-10-28T00:17:36.324Z,11.80
2022-10-28T00:20:05.312Z,11.80
2022-10-28T00:22:33.405Z,11.80
2022-10-28T00:25:05.848Z,11.80
2022-10-28T00:27:36.413Z,11.80
2022-10-28T00:30:05.310Z,11.80
2022-10-28T00:32:33.634Z,11.90
2022-10-28T00:35:01.675Z,12.00
2022-10-28T00:37:29.681Z,12.00
2022-10-28T00:39:57.803Z,12.00
2022-10-28T00:42:27.854Z,12.00
2022-10-28T00:44:58.203Z,11.90
2022-10-28T00:47:43.620Z,11.90
2022-10-28T00:50:21.069Z,11.90
2022-10-28T00:52:54.691Z,11.80
2022-10-28T00:55:24.466Z,11.80
2022-10-28T00:57:58.564Z,11.90
2022-10-28T01:00:27.601Z,11.80
2022-10-28T01:02:57.607Z,11.90
2022-10-28T01:05:28.781Z,11.90
2022-10-28T01:08:00.412Z,11.90
2022-10-28T01:10:48.051Z,11.90
2022-10-28T01:13:26.817Z,11.80
2022-10-28T01:16:02.108Z,11.80
2022-10-28T01:18:37.234Z,11.80
2022-10-28T01:21:41.262Z,11.80
2022-10-28T01:24:20.908Z,11.70
2022-10-28T01:27:09.447Z,11.70
2022-10-28T01:30:08.581Z,11.60
2022-10-28T01:32:49.254Z,11.50
2022-10-28T01:35:22.313Z,11.50
2022-10-28T01:38:01.964Z,11.40
2022-10-28T01:40:36.959Z,11.30
2022-10-28T01:43:13.670Z,11.30
2022-10-28T01:45:50.562Z,11.20
2022-10-28T01:48:23.745Z,11.20
2022-10-28T01:50:58.409Z,11.10
2022-10-28T01:53:31.377Z,11.10
2022-10-28T01:56:04.275Z,11.10
2022-10-28T01:58:33.758Z,11.10
2022-10-28T02:01:06.297Z,11.10
2022-10-28T02:03:36.696Z,11.10
2022-10-28T02:06:07.093Z,11.10
2022-10-28T02:09:00.870Z,11.20
2022-10-28T02:11:53.195Z,11.10
2022-10-28T02:14:38.953Z,11.20
2022-10-28T02:17:18.400Z,11.30
2022-10-28T02:19:52.177Z,11.30
2022-10-28T02:22:27.896Z,11.30
2022-10-28T02:25:03.424Z,11.40
2022-10-28T02:27:36.630Z,11.40
2022-10-28T02:30:10.334Z,11.40
2022-10-28T02:32:42.203Z,11.40
2022-10-28T02:35:18.483Z,11.40
2022-10-28T02:37:49.820Z,11.50
2022-10-28T02:40:25.869Z,11.50
2022-10-28T02:42:56.754Z,11.50
2022-10-28T02:45:29.406Z,11.50
2022-10-28T02:48:03.895Z,11.50
2022-10-28T02:50:37.134Z,11.50
2022-10-28T02:53:12.595Z,11.50
2022-10-28T02:55:45.397Z,11.60
2022-10-28T02:58:13.726Z,11.70
2022-10-28T03:00:45.781Z,11.70
2022-10-28T03:03:14.280Z,11.70
2022-10-28T03:05:43.761Z,11.70
2022-10-28T03:08:11.951Z,11.60
2022-10-28T03:10:39.946Z,11.60
2022-10-28T03:13:08.042Z,11.60
2022-10-28T03:15:36.103Z,11.50
2022-10-28T03:18:04.531Z,11.50
2022-10-28T03:20:32.525Z,11.50
2022-10-28T03:23:02.465Z,11.50
2022-10-28T03:25:30.721Z,11.40
2022-10-28T03:27:58.785Z,11.30
2022-10-28T03:30:26.840Z,11.30
2022-10-28T03:32:55.235Z,11.20
2022-10-28T03:35:23.481Z,11.10
2022-10-28T03:37:51.634Z,11.10
2022-10-28T03:40:23.837Z,11.00
2022-10-28T03:42:52.198Z,11.00
2022-10-28T03:45:20.573Z,10.90
2022-10-28T03:47:48.694Z,10.90
2022-10-28T03:50:16.968Z,10.90
2022-10-28T03:52:45.469Z,11.00
2022-10-28T03:55:13.620Z,11.00
2022-10-28T03:57:43.198Z,11.00
2022-10-28T04:00:12.329Z,11.00
2022-10-28T04:02:40.509Z,11.00
2022-10-28T04:05:09.494Z,11.00
2022-10-28T04:07:37.551Z,11.00
2022-10-28T04:10:06.404Z,11.10
2022-10-28T04:12:34.420Z,11.10
2022-10-28T04:15:04.451Z,11.10
2022-10-28T04:17:34.762Z,11.10
2022-10-28T04:20:02.881Z,11.10
2022-10-28T04:22:30.934Z,11.20
2022-10-28T04:24:58.994Z,11.10
2022-10-28T04:27:27.118Z,11.20
2022-10-28T04:29:55.146Z,11.20
2022-10-28T04:32:24.733Z,11.20
2022-10-28T04:34:52.721Z,11.20
2022-10-28T04:37:23.343Z,11.20
2022-10-28T04:39:51.496Z,11.20
2022-10-28T04:42:19.669Z,11.20
2022-10-28T04:44:47.768Z,11.20
2022-10-28T04:47:18.529Z,11.20
2022-10-28T04:49:48.054Z,11.20
2022-10-28T04:52:16.339Z,11.20
2022-10-28T04:54:44.581Z,11.20
2022-10-28T04:57:14.999Z,11.20
2022-10-28T04:59:44.235Z,11.20
2022-10-28T05:02:14.870Z,11.20
2022-10-28T05:04:43.013Z,11.20
2022-10-28T05:07:12.420Z,11.30
2022-10-28T05:09:40.483Z,11.30
2022-10-28T05:12:08.673Z,11.40
2022-10-28T05:14:36.802Z,11.50
2022-10-28T05:17:04.883Z,11.60
2022-10-28T05:19:33.047Z,11.50
2022-10-28T05:22:01.041Z,11.50
2022-10-28T05:24:30.422Z,11.40
2022-10-28T05:27:00.871Z,11.40
2022-10-28T05:29:33.201Z,11.40
2022-10-28T05:32:02.058Z,11.50
2022-10-28T05:34:30.222Z,11.60
2022-10-28T05:36:58.469Z,11.60
2022-10-28T05:39:26.660Z,11.70
2022-10-28T05:41:56.156Z,11.70
2022-10-28T05:44:24.329Z,11.80
2022-10-28T05:46:54.155Z,11.80
2022-10-28T05:49:22.739Z,11.80
2022-10-28T05:51:50.983Z,11.90
2022-10-28T05:54:19.350Z,11.90
2022-10-28T05:56:47.551Z,11.90
2022-10-28T05:59:17.069Z,12.00
2022-10-28T06:01:45.400Z,12.00
2022-10-28T06:04:13.513Z,12.00
2022-10-28T06:06:46.512Z,12.00
2022-10-28T06:09:14.661Z,12.10
2022-10-28T06:11:41.221Z,12.10
2022-10-28T06:14:11.710Z,12.10
2022-10-28T06:16:43.341Z,12.10
2022-10-28T06:19:11.413Z,12.10
2022-10-28T06:21:39.565Z,12.10
2022-10-28T06:24:12.131Z,12.20
2022-10-28T06:26:40.563Z,12.20
2022-10-28T06:29:10.691Z,12.30
2022-10-28T06:31:42.592Z,12.40
2022-10-28T06:34:11.384Z,12.40
2022-10-28T06:36:39.533Z,12.40
2022-10-28T06:39:07.648Z,12.40
2022-10-28T06:41:35.737Z,12.50
2022-10-28T06:44:04.104Z,12.50
2022-10-28T06:46:33.690Z,12.50
2022-10-28T06:49:04.687Z,12.50
2022-10-28T06:51:33.359Z,12.60
2022-10-28T06:54:01.528Z,12.60
2022-10-28T06:56:29.571Z,12.60
2022-10-28T06:58:57.689Z,12.60
2022-10-28T07:01:25.787Z,12.60
2022-10-28T07:03:55.149Z,12.70
2022-10-28T07:06:24.563Z,12.70
2022-10-28T07:08:53.320Z,12.80
2022-10-28T07:11:21.743Z,12.80
2022-10-28T07:13:49.976Z,12.90
2022-10-28T07:16:18.078Z,13.00
2022-10-28T07:18:46.145Z,13.20
2022-10-28T07:21:14.836Z,13.20
2022-10-28T07:23:44.245Z,13.40
2022-10-28T07:26:12.336Z,13.50
2022-10-28T07:28:40.497Z,13.60
2022-10-28T07:31:08.617Z,13.70
2022-10-28T07:33:36.721Z,13.70
2022-10-28T07:36:05.921Z,13.50
2022-10-28T07:38:35.321Z,13.40
2022-10-28T07:41:07.388Z,13.30
2022-10-28T07:43:37.957Z,13.40
2022-10-28T07:46:07.027Z,13.50
2022-10-28T07:48:37.585Z,13.70
2022-10-28T07:51:07.778Z,13.90
2022-10-28T07:53:36.837Z,14.00
2022-10-28T07:56:09.647Z,14.20
2022-10-28T07:58:38.229Z,14.40
2022-10-28T08:01:08.489Z,14.60
2022-10-28T08:03:38.853Z,14.70
2022-10-28T08:06:09.943Z,14.90
2022-10-28T08:08:38.802Z,15.20
2022-10-28T08:11:12.460Z,15.40
2022-10-28T08:13:40.674Z,15.70
2022-10-28T08:16:11.584Z,16.00
2022-10-28T08:18:40.518Z,16.30
2022-10-28T08:21:10.441Z,16.50
2022-10-28T08:23:39.410Z,16.80
2022-10-28T08:26:11.182Z,17.00
2022-10-28T08:28:39.374Z,17.10
2022-10-28T08:31:10.259Z,17.10
2022-10-28T08:33:39.367Z,17.10
2022-10-28T08:36:12.471Z,17.30
2022-10-28T08:38:45.279Z,17.40
2022-10-28T08:41:30.933Z,17.40
2022-10-28T08:44:23.664Z,17.30
2022-10-28T08:47:05.611Z,17.20
2022-10-28T08:49:36.891Z,17.00
2022-10-28T08:52:12.303Z,17.00
2022-10-28T08:54:47.202Z,16.90
2022-10-28T08:57:21.547Z,16.90
2022-10-28T08:59:52.974Z,16.80
2022-10-28T09:02:23.090Z,16.80
2022-10-28T09:04:57.742Z,16.80
2022-10-28T09:07:26.529Z,16.80
2022-10-28T09:09:55.161Z,16.80
2022-10-28T09:12:36.434Z,16.80
2022-10-28T09:15:19.084Z,16.80
2022-10-28T09:17:54.550Z,16.90
2022-10-28T09:20:34.109Z,17.10
2022-10-28T09:23:10.536Z,17.20
2022-10-28T09:25:49.270Z,17.50
2022-10-28T09:28:34.491Z,17.70
2022-10-28T09:31:14.429Z,17.90
2022-10-28T09:33:52.202Z,18.10
2022-10-28T09:36:25.214Z,18.30
2022-10-28T09:38:56.147Z,18.50
2022-10-28T09:41:28.784Z,18.70
2022-10-28T09:44:04.874Z,18.90
2022-10-28T09:46:36.278Z,19.10
2022-10-28T09:49:12.056Z,19.20
2022-10-28T09:51:50.787Z,19.50
2022-10-28T09:54:20.405Z,19.60
2022-10-28T09:56:48.471Z,19.70
2022-10-28T09:59:17.912Z,19.80
2022-10-28T10:01:47.855Z,19.90
2022-10-28T10:04:20.908Z,20.00
2022-10-28T10:06:55.180Z,20.20
2022-10-28T10:09:27.164Z,20.20
2022-10-28T10:11:58.136Z,20.30
2022-10-28T10:14:32.409Z,20.30
2022-10-28T10:17:04.346Z,20.40
2022-10-28T10:19:59.944Z,20.50
2022-10-28T10:22:33.058Z,20.60
2022-10-28T10:25:01.132Z,20.70
2022-10-28T10:27:31.071Z,20.80
2022-10-28T10:30:00.821Z,20.90
2022-10-28T10:32:32.039Z,21.00
2022-10-28T10:35:06.662Z,21.10
2022-10-28T10:37:36.603Z,21.20
2022-10-28T10:40:13.407Z,21.30
2022-10-28T10:42:51.675Z,21.50
2022-10-28T10:45:31.093Z,21.60
2022-10-28T10:48:14.121Z,21.80
2022-10-28T10:50:44.984Z,21.90
2022-10-28T10:53:21.271Z,22.10
2022-10-28T10:55:55.956Z,22.20
2022-10-28T10:58:26.795Z,22.00
2022-10-28T11:00:59.130Z,21.90
2022-10-28T11:03:30.067Z,21.80
2022-10-28T11:08:48.199Z,21.60
2022-10-28T11:11:20.865Z,21.60
2022-10-28T11:13:50.481Z,21.70
2022-10-28T11:16:22.122Z,21.80
2022-10-28T11:18:54.314Z,22.00
2022-10-28T11:21:37.005Z,22.20
2022-10-28T11:24:16.988Z,22.30
2022-10-28T11:26:58.701Z,22.40
2022-10-28T11:29:27.090Z,22.50
2022-10-28T11:32:15.985Z,22.60
2022-10-28T11:35:23.993Z,22.70
2022-10-28T11:38:04.304Z,22.80
2022-10-28T11:40:40.406Z,22.80
2022-10-28T11:43:26.071Z,23.00
2022-10-28T11:46:03.479Z,22.90
2022-10-28T11:48:40.539Z,22.90
2022-10-28T11:51:20.028Z,23.10
2022-10-28T11:54:08.655Z,23.50
2022-10-28T11:56:40.737Z,23.80
2022-10-28T11:59:38.446Z,23.70
2022-10-28T12:02:27.494Z,23.90
2022-10-28T12:05:08.732Z,24.10
2022-10-28T12:08:02.320Z,24.20
2022-10-28T12:10:44.173Z,23.90
2022-10-28T12:13:22.161Z,24.00
2022-10-28T12:15:57.290Z,23.90
2022-10-28T12:18:33.417Z,23.90
2022-10-28T12:21:11.378Z,23.90
2022-10-28T12:23:44.997Z,23.80
2022-10-28T12:26:16.650Z,23.70
2022-10-28T12:28:47.824Z,23.70
2022-10-28T12:31:22.966Z,23.60
2022-10-28T12:33:54.185Z,23.60
2022-10-28T12:36:31.955Z,23.60
2022-10-28T12:39:03.762Z,23.60
2022-10-28T12:41:46.886Z,23.70
2022-10-28T12:44:17.485Z,23.50
2022-10-28T12:46:57.171Z,23.30
2022-10-28T12:49:32.823Z,23.20
2022-10-28T12:52:09.327Z,23.20
2022-10-28T12:54:43.373Z,23.00
2022-10-28T12:57:15.054Z,22.90
2022-10-28T12:59:46.719Z,22.70
2022-10-28T13:02:20.905Z,22.60
2022-10-28T13:04:49.324Z,22.60
2022-10-28T13:07:56.210Z,22.70
2022-10-28T13:10:35.450Z,22.70
2022-10-28T13:13:25.655Z,22.70
2022-10-28T13:16:25.935Z,22.70
2022-10-28T13:19:28.823Z,22.70
2022-10-28T13:22:28.732Z,22.70
2022-10-28T13:25:07.158Z,22.70
2022-10-28T13:30:06.537Z,23.10
2022-10-28T13:32:39.079Z,23.10
2022-10-28T13:35:17.218Z,23.20
2022-10-28T13:37:48.565Z,23.20
2022-10-28T13:40:40.159Z,23.40
2022-10-28T13:43:20.077Z,23.40
2022-10-28T13:45:52.467Z,23.40
2022-10-28T13:48:54.259Z,23.30
2022-10-28T13:51:50.707Z,23.20
2022-10-28T13:54:27.985Z,23.00
2022-10-28T13:57:03.306Z,22.90
2022-10-28T13:59:43.067Z,22.80
2022-10-28T14:02:35.156Z,22.70
2022-10-28T14:05:07.329Z,22.50
2022-10-28T14:07:37.335Z,22.40
2022-10-28T14:10:24.624Z,22.40
2022-10-28T14:12:57.390Z,22.30
2022-10-28T14:15:28.177Z,22.20
2022-10-28T14:18:15.871Z,22.10
2022-10-28T14:21:00.840Z,21.90
2022-10-28T14:23:52.097Z,21.80
2022-10-28T14:26:20.430Z,21.60
2022-10-28T14:28:56.776Z,21.50
2022-10-28T14:31:45.475Z,21.40
2022-10-28T14:34:36.677Z,21.30
2022-10-28T14:37:33.453Z,21.20
2022-10-28T14:40:15.414Z,21.10
2022-10-28T14:42:59.635Z,21.10
2022-10-28T14:45:45.095Z,21.00
2022-10-28T14:48:44.988Z,20.90
2022-10-28T14:51:16.800Z,20.80
2022-10-28T14:53:47.150Z,20.70
2022-10-28T14:58:52.831Z,20.50
2022-10-28T15:01:25.927Z,20.40
2022-10-28T15:04:01.744Z,20.30
2022-10-28T15:06:39.059Z,20.10
2022-10-28T15:09:18.259Z,20.00
2022-10-28T15:11:49.921Z,19.90
2022-10-28T15:14:30.881Z,19.80
2022-10-28T15:17:04.000Z,19.70
2022-10-28T15:19:36.062Z,19.60
2022-10-28T15:22:18.175Z,19.60
2022-10-28T15:25:00.896Z,19.40
2022-10-28T15:27:31.291Z,19.30
2022-10-28T15:29:59.842Z,19.20
2022-10-28T15:32:32.279Z,19.10
2022-10-28T15:35:00.969Z,19.00
2022-10-28T15:37:31.617Z,18.90
2022-10-28T15:40:20.365Z,18.80
2022-10-28T15:42:53.647Z,18.70
2022-10-28T15:45:26.008Z,18.60
2022-10-28T15:47:57.204Z,18.50
2022-10-28T15:50:31.582Z,18.50
2022-10-28T15:53:34.148Z,18.40
2022-10-28T15:56:23.409Z,18.50
2022-10-28T15:59:04.287Z,18.50
2022-10-28T16:01:39.351Z,18.60
2022-10-28T16:04:25.818Z,18.50
2022-10-28T16:06:56.997Z,18.60
2022-10-28T16:09:32.165Z,18.60
2022-10-28T16:12:04.785Z,18.60
2022-10-28T16:14:37.681Z,18.60
2022-10-28T16:17:08.289Z,18.70
2022-10-28T16:19:39.287Z,18.70
2022-10-28T16:22:12.950Z,18.70
2022-10-28T16:24:41.088Z,18.60
2022-10-28T16:27:18.718Z,18.50
2022-10-28T16:29:46.922Z,18.50
2022-10-28T16:32:17.061Z,18.50
2022-10-28T16:34:45.218Z,18.50
2022-10-28T16:37:22.985Z,18.40
2022-10-28T16:39:54.247Z,18.40
2022-10-28T16:42:23.646Z,18.40
2022-10-28T16:44:53.046Z,18.30
2022-10-28T16:47:23.085Z,18.30
2022-10-28T16:49:57.379Z,18.20
2022-10-28T16:52:32.030Z,18.20
2022-10-28T16:55:00.132Z,18.10
2022-10-28T16:57:28.937Z,18.10
2022-10-28T16:59:57.622Z,18.10
2022-10-28T17:02:28.665Z,18.00
2022-10-28T17:04:57.473Z,18.00
2022-10-28T17:07:25.977Z,18.10
2022-10-28T17:09:56.724Z,18.10
2022-10-28T17:12:28.711Z,18.00
2022-10-28T17:14:56.958Z,18.00
2022-10-28T17:17:24.975Z,18.00
2022-10-28T17:19:53.077Z,18.00
2022-10-28T17:22:21.185Z,18.00
2022-10-28T17:24:49.243Z,17.90
2022-10-28T17:27:19.250Z,17.90
2022-10-28T17:29:47.478Z,17.90
2022-10-28T17:32:15.913Z,17.90
2022-10-28T17:34:44.123Z,18.00
2022-10-28T17:37:12.190Z,17.90
2022-10-28T17:39:40.270Z,17.90
2022-10-28T17:42:08.397Z,17.90
2022-10-28T17:44:37.981Z,17.90
2022-10-28T17:47:08.404Z,17.90
2022-10-28T17:49:36.583Z,17.90
2022-10-28T17:52:04.705Z,17.80
2022-10-28T17:54:32.904Z,17.80
2022-10-28T17:57:01.269Z,17.80
2022-10-28T17:59:29.420Z,17.70
2022-10-28T18:01:59.029Z,17.70
2022-10-28T18:04:30.490Z,17.70
2022-10-28T18:06:59.369Z,17.70
2022-10-28T18:09:31.615Z,17.70
2022-10-28T18:11:59.832Z,17.70
2022-10-28T18:14:29.153Z,17.70
2022-10-28T18:16:58.633Z,17.60
2022-10-28T18:19:26.817Z,17.60
2022-10-28T18:21:54.875Z,17.60
2022-10-28T18:24:26.211Z,17.60
2022-10-28T18:26:57.097Z,17.60
2022-10-28T18:29:28.657Z,17.60
2022-10-28T18:31:58.148Z,17.60
2022-10-28T18:34:26.259Z,17.60
2022-10-28T18:36:54.302Z,17.60
2022-10-28T18:40:29.870Z,17.60
2022-10-28T18:42:58.015Z,17.50
2022-10-28T18:45:28.200Z,17.50
2022-10-28T18:47:58.571Z,17.40
2022-10-28T18:50:27.116Z,17.40
2022-10-28T18:52:55.514Z,17.30
2022-10-28T18:55:26.266Z,17.30
2022-10-28T18:57:54.375Z,17.20
2022-10-28T19:00:23.066Z,17.10
2022-10-28T19:02:52.200Z,17.10
2022-10-28T19:05:24.306Z,17.00
2022-10-28T19:07:52.661Z,17.00
2022-10-28T19:10:20.953Z,17.10
2022-10-28T19:12:52.764Z,17.10
2022-10-28T19:15:21.291Z,17.10
2022-10-28T19:17:49.363Z,17.10
2022-10-28T19:20:21.263Z,17.10
2022-10-28T19:22:50.778Z,17.10
2022-10-28T19:25:18.994Z,17.10
2022-10-28T19:27:47.160Z,17.10
2022-10-28T19:30:15.602Z,17.10
2022-10-28T19:32:43.812Z,17.10
2022-10-28T19:35:15.084Z,17.10
2022-10-28T19:37:43.467Z,17.10
2022-10-28T19:40:14.000Z,17.10
2022-10-28T19:42:42.134Z,17.10
2022-10-28T19:45:11.130Z,17.10
2022-10-28T19:47:39.177Z,17.10
2022-10-28T19:50:08.433Z,17.10
2022-10-28T19:52:36.522Z,17.10
2022-10-28T19:55:08.817Z,17.10
2022-10-28T19:57:41.916Z,17.10
2022-10-28T20:00:13.155Z,17.10
2022-10-28T20:02:41.486Z,17.10
2022-10-28T20:05:10.065Z,17.10
2022-10-28T20:07:40.547Z,17.10
2022-10-28T20:10:09.799Z,17.00
2022-10-28T20:12:37.926Z,17.00
2022-10-28T20:15:08.913Z,17.10
2022-10-28T20:17:37.165Z,17.00
2022-10-28T20:20:05.961Z,17.10
2022-10-28T20:22:36.548Z,17.00
2022-10-28T20:25:09.403Z,17.00
2022-10-28T20:27:37.528Z,17.00
2022-10-28T20:30:08.529Z,17.00
2022-10-28T20:32:36.822Z,17.00
2022-10-28T20:35:05.191Z,17.00
2022-10-28T20:37:33.282Z,17.00
2022-10-28T20:40:06.247Z,16.90
2022-10-28T20:42:35.951Z,16.90
2022-10-28T20:45:04.956Z,16.90
2022-10-28T20:47:34.748Z,16.90
2022-10-28T20:50:02.845Z,16.80
2022-10-28T20:52:31.505Z,16.70
2022-10-28T20:54:59.702Z,16.70
2022-10-28T20:57:27.912Z,16.60
2022-10-28T20:59:56.137Z,16.50
2022-10-28T21:02:24.292Z,16.40
2022-10-28T21:04:53.817Z,16.40
2022-10-28T21:07:24.239Z,16.20
2022-10-28T21:09:52.404Z,16.20
2022-10-28T21:12:20.509Z,16.10
2022-10-28T21:14:48.664Z,16.00
2022-10-28T21:17:16.771Z,16.00
2022-10-28T21:19:45.030Z,15.90
2022-10-28T21:22:14.519Z,15.80
2022-10-28T21:24:42.735Z,15.70
2022-10-28T21:27:11.385Z,15.60
2022-10-28T21:29:39.914Z,15.60
2022-10-28T21:32:08.155Z,15.60
2022-10-28T21:34:36.204Z,15.50
2022-10-28T21:37:04.312Z,15.50
2022-10-28T21:39:35.861Z,15.40
2022-10-28T21:42:04.286Z,15.40
2022-10-28T21:44:32.620Z,15.40
2022-10-28T21:47:01.588Z,15.40
2022-10-28T21:49:31.709Z,15.40
2022-10-28T21:51:59.879Z,15.40
2022-10-28T21:54:28.051Z,15.40
2022-10-28T21:56:57.560Z,15.40
2022-10-28T21:59:25.834Z,15.40
2022-10-28T22:01:54.668Z,15.40
2022-10-28T22:04:22.916Z,15.40
2022-10-28T22:06:51.071Z,15.50
2022-10-28T22:09:19.246Z,15.50
2022-10-28T22:11:47.578Z,15.50
2022-10-28T22:14:17.473Z,15.40
2022-10-28T22:16:45.729Z,15.30
2022-10-28T22:19:15.482Z,15.30
2022-10-28T22:21:44.043Z,15.30
2022-10-28T22:24:12.397Z,15.30
2022-10-28T22:26:40.484Z,15.20
2022-10-28T22:29:08.575Z,15.20
2022-10-28T22:31:38.157Z,15.10
2022-10-28T22:34:06.418Z,15.00
2022-10-28T22:36:34.523Z,14.80
2022-10-28T22:39:02.754Z,14.70
2022-10-28T22:41:32.899Z,14.70
2022-10-28T22:44:02.814Z,14.60
2022-10-28T22:46:33.441Z,14.60
2022-10-28T22:49:03.475Z,14.60
2022-10-28T22:51:31.639Z,14.60
2022-10-28T22:53:59.813Z,14.50
2022-10-28T22:56:30.576Z,14.50
2022-10-28T22:59:00.968Z,14.50
2022-10-28T23:01:30.703Z,14.50
2022-10-28T23:04:02.675Z,14.40
2022-10-28T23:06:31.345Z,14.40
2022-10-28T23:09:08.045Z,14.40
2022-10-28T23:11:41.318Z,14.30
2022-10-28T23:14:22.741Z,14.40
2022-10-28T23:16:57.416Z,14.40
2022-10-28T23:19:35.261Z,14.30
2022-10-28T23:22:07.551Z,14.30
2022-10-28T23:24:39.404Z,14.30
2022-10-28T23:27:10.865Z,14.30
2022-10-28T23:29:41.984Z,14.30
2022-10-28T23:32:13.270Z,14.20
2022-10-28T23:34:46.620Z,14.10
2022-10-28T23:37:15.312Z,14.10
2022-10-28T23:39:43.436Z,14.00
2022-10-28T23:42:11.511Z,13.90
2022-10-28T23:44:39.642Z,13.90
2022-10-28T23:47:08.310Z,13.80
2022-10-28T23:49:36.477Z,13.80
2022-10-28T23:52:06.387Z,13.80
2022-10-28T23:54:34.637Z,13.70
2022-10-28T23:57:02.744Z,13.70
2022-10-28T23:59:30.931Z,13.60
